createdAt,value
2019-01-13T00:01:09.569Z,3.50
2019-01-13T00:03:38.389Z,3.50
2019-01-13T00:06:07.139Z,3.50
2019-01-13T00:08:35.696Z,3.50
2019-01-13T00:11:07.094Z,3.60
2019-01-13T00:13:35.767Z,3.50
2019-01-13T00:16:04.597Z,3.60
2019-01-13T00:18:33.334Z,3.50
2019-01-13T00:21:01.846Z,3.50
2019-01-13T00:23:30.345Z,3.60
2019-01-13T00:25:58.902Z,3.60
2019-01-13T00:28:27.381Z,3.70
2019-01-13T00:30:57.770Z,3.60
2019-01-13T00:33:26.545Z,3.60
2019-01-13T00:35:55.054Z,3.70
2019-01-13T00:38:26.837Z,3.70
2019-01-13T00:40:55.348Z,3.70
2019-01-13T00:43:24.022Z,3.70
2019-01-13T00:45:52.725Z,3.70
2019-01-13T00:48:21.176Z,3.70
2019-01-13T00:50:50.101Z,3.80
2019-01-13T00:53:18.611Z,3.80
2019-01-13T00:55:47.150Z,3.70
2019-01-13T00:58:17.197Z,3.70
2019-01-13T01:00:47.306Z,3.70
2019-01-13T01:03:16.122Z,3.80
2019-01-13T01:05:46.454Z,3.80
2019-01-13T01:08:15.813Z,3.80
2019-01-13T01:10:44.709Z,3.80
2019-01-13T01:13:13.418Z,3.80
2019-01-13T01:15:41.938Z,3.80
2019-01-13T01:18:10.509Z,3.80
2019-01-13T01:20:38.926Z,3.70
2019-01-13T01:23:07.743Z,3.80
2019-01-13T01:25:36.681Z,3.70
2019-01-13T01:28:05.233Z,3.70
2019-01-13T01:30:34.081Z,3.70
2019-01-13T01:33:02.557Z,3.60
2019-01-13T01:35:31.080Z,3.50
2019-01-13T01:37:59.789Z,3.60
2019-01-13T01:40:28.253Z,3.10
2019-01-13T01:42:56.685Z,3.60
2019-01-13T01:45:25.433Z,3.60
2019-01-13T01:47:54.113Z,3.60
2019-01-13T01:50:22.915Z,3.70
2019-01-13T01:52:51.841Z,3.70
2019-01-13T01:55:20.434Z,3.70
2019-01-13T01:57:49.047Z,3.70
2019-01-13T02:00:22.898Z,3.80
2019-01-13T02:02:51.542Z,3.70
2019-01-13T02:05:20.341Z,3.80
2019-01-13T02:07:48.841Z,3.80
2019-01-13T02:10:18.854Z,3.80
2019-01-13T02:12:47.728Z,3.90
2019-01-13T02:15:19.453Z,3.90
2019-01-13T02:17:48.741Z,4.00
2019-01-13T02:20:18.932Z,4.00
2019-01-13T02:22:47.741Z,4.00
2019-01-13T02:25:19.849Z,4.00
2019-01-13T02:27:48.673Z,4.00
2019-01-13T02:30:19.706Z,4.00
2019-01-13T02:32:48.142Z,4.10
2019-01-13T02:35:16.970Z,4.10
2019-01-13T02:37:45.390Z,4.10
2019-01-13T02:40:16.468Z,4.10
2019-01-13T02:42:46.589Z,4.10
2019-01-13T02:45:20.652Z,4.10
2019-01-13T02:47:49.511Z,4.10
2019-01-13T02:50:18.386Z,4.10
2019-01-13T02:52:46.798Z,4.20
2019-01-13T02:55:15.701Z,4.20
2019-01-13T02:57:44.469Z,4.30
2019-01-13T03:00:18.722Z,4.30
2019-01-13T03:02:47.137Z,4.20
2019-01-13T03:05:16.034Z,4.20
2019-01-13T03:07:44.952Z,4.10
2019-01-13T03:10:22.422Z,4.10
2019-01-13T03:12:51.059Z,4.20
2019-01-13T03:15:21.690Z,4.10
2019-01-13T03:17:50.587Z,4.10
2019-01-13T03:20:19.243Z,4.20
2019-01-13T03:22:48.075Z,4.20
2019-01-13T03:25:18.817Z,4.20
2019-01-13T03:27:47.390Z,4.20
2019-01-13T03:30:18.150Z,4.10
2019-01-13T03:32:47.102Z,4.20
2019-01-13T03:35:16.599Z,4.30
2019-01-13T03:37:45.380Z,4.30
2019-01-13T03:40:21.183Z,4.30
2019-01-13T03:42:49.733Z,4.20
2019-01-13T03:45:18.172Z,4.30
2019-01-13T03:47:46.914Z,4.30
2019-01-13T03:50:20.330Z,4.30
2019-01-13T03:52:53.161Z,4.40
2019-01-13T03:55:21.770Z,4.40
2019-01-13T03:57:50.400Z,4.30
2019-01-13T04:00:21.319Z,4.30
2019-01-13T04:02:49.906Z,4.40
2019-01-13T04:05:18.448Z,4.40
2019-01-13T04:07:46.944Z,4.30
2019-01-13T04:10:16.829Z,4.30
2019-01-13T04:12:45.657Z,4.40
2019-01-13T04:15:26.039Z,4.40
2019-01-13T04:17:54.974Z,4.40
2019-01-13T04:20:23.640Z,4.40
2019-01-13T04:22:52.406Z,4.40
2019-01-13T04:25:20.898Z,4.40
2019-01-13T04:27:49.454Z,4.50
2019-01-13T04:30:18.113Z,4.50
2019-01-13T04:32:48.170Z,4.50
2019-01-13T04:35:16.730Z,4.50
2019-01-13T04:37:45.247Z,4.40
2019-01-13T04:40:13.811Z,4.40
2019-01-13T04:42:43.569Z,4.40
2019-01-13T04:45:12.401Z,4.50
2019-01-13T04:47:40.981Z,4.50
2019-01-13T04:50:12.795Z,4.50
2019-01-13T04:52:41.351Z,4.50
2019-01-13T04:55:10.038Z,4.50
2019-01-13T04:57:38.866Z,4.50
2019-01-13T05:00:16.357Z,4.50
2019-01-13T05:02:44.845Z,4.50
2019-01-13T05:05:13.692Z,4.50
2019-01-13T05:07:42.357Z,4.60
2019-01-13T05:10:13.730Z,4.60
2019-01-13T05:12:42.481Z,4.50
2019-01-13T05:15:11.073Z,4.60
2019-01-13T05:17:39.507Z,4.60
2019-01-13T05:20:10.964Z,4.60
2019-01-13T05:22:39.887Z,4.70
2019-01-13T05:25:08.888Z,4.70
2019-01-13T05:27:37.452Z,4.70
2019-01-13T05:30:09.001Z,4.70
2019-01-13T05:32:37.584Z,4.70
2019-01-13T05:35:06.373Z,4.70
2019-01-13T05:37:35.154Z,4.70
2019-01-13T05:40:04.797Z,4.80
2019-01-13T05:42:33.503Z,4.70
2019-01-13T05:45:02.202Z,4.70
2019-01-13T05:47:30.669Z,4.70
2019-01-13T05:49:59.201Z,4.70
2019-01-13T05:52:27.612Z,4.70
2019-01-13T05:54:56.379Z,4.70
2019-01-13T05:57:24.814Z,4.70
2019-01-13T05:59:53.510Z,4.70
2019-01-13T06:02:21.946Z,4.80
2019-01-13T06:04:50.797Z,4.80
2019-01-13T06:07:19.305Z,4.80
2019-01-13T06:09:47.782Z,4.90
2019-01-13T06:12:16.496Z,4.90
2019-01-13T06:14:44.925Z,4.90
2019-01-13T06:17:13.365Z,4.80
2019-01-13T06:19:41.848Z,4.80
2019-01-13T06:22:10.550Z,4.80
2019-01-13T06:24:39.294Z,4.80
2019-01-13T06:27:08.129Z,4.80
2019-01-13T06:29:37.106Z,3.50
2019-01-13T06:32:05.682Z,4.80
2019-01-13T06:34:34.114Z,4.80
2019-01-13T06:37:02.809Z,4.80
2019-01-13T06:39:31.498Z,4.80
2019-01-13T06:42:00.178Z,4.80
2019-01-13T06:44:28.625Z,4.80
2019-01-13T06:46:57.346Z,4.80
2019-01-13T06:49:26.030Z,4.80
2019-01-13T06:51:54.474Z,4.80
2019-01-13T06:54:22.966Z,4.80
2019-01-13T06:56:51.392Z,4.80
2019-01-13T06:59:19.817Z,4.80
2019-01-13T07:01:48.497Z,4.90
2019-01-13T07:04:16.981Z,5.00
2019-01-13T07:06:45.422Z,5.00
2019-01-13T07:09:13.840Z,4.90
2019-01-13T07:11:45.011Z,4.90
2019-01-13T07:14:13.669Z,5.00
2019-01-13T07:16:42.366Z,5.00
2019-01-13T07:19:11.081Z,5.00
2019-01-13T07:21:39.569Z,5.00
2019-01-13T07:24:08.053Z,5.00
2019-01-13T07:26:36.548Z,5.00
2019-01-13T07:29:04.998Z,5.00
2019-01-13T07:31:33.765Z,5.10
2019-01-13T07:34:02.499Z,5.10
2019-01-13T07:36:31.189Z,5.30
2019-01-13T07:38:59.874Z,5.60
2019-01-13T07:41:28.610Z,5.50
2019-01-13T07:43:57.026Z,5.40
2019-01-13T07:46:25.742Z,5.30
2019-01-13T07:48:54.181Z,5.30
2019-01-13T07:51:22.850Z,5.30
2019-01-13T07:53:51.284Z,5.20
2019-01-13T07:56:20.034Z,5.30
2019-01-13T07:58:48.705Z,5.30
2019-01-13T08:01:17.167Z,5.30
2019-01-13T08:03:45.649Z,5.30
2019-01-13T08:06:14.062Z,5.30
2019-01-13T08:08:42.813Z,5.30
2019-01-13T08:11:11.497Z,5.30
2019-01-13T08:13:39.909Z,5.40
2019-01-13T08:16:08.685Z,5.40
2019-01-13T08:18:37.176Z,5.50
2019-01-13T08:21:05.623Z,5.50
2019-01-13T08:23:34.062Z,5.50
2019-01-13T08:26:02.502Z,5.50
2019-01-13T08:28:31.162Z,5.50
2019-01-13T08:30:59.665Z,5.50
2019-01-13T08:33:28.350Z,5.60
2019-01-13T08:35:57.018Z,5.60
2019-01-13T08:38:25.449Z,5.60
2019-01-13T08:40:53.886Z,5.70
2019-01-13T08:43:22.581Z,5.70
2019-01-13T08:45:51.270Z,5.70
2019-01-13T08:48:19.705Z,5.80
2019-01-13T08:50:48.146Z,5.80
2019-01-13T08:53:16.874Z,5.80
2019-01-13T08:55:45.497Z,5.80
2019-01-13T08:58:13.965Z,5.80
2019-01-13T09:00:42.397Z,5.80
2019-01-13T09:03:10.829Z,5.80
2019-01-13T09:05:39.432Z,5.90
2019-01-13T09:08:08.731Z,5.90
2019-01-13T09:10:37.237Z,5.90
2019-01-13T09:13:05.850Z,5.80
2019-01-13T09:15:34.794Z,5.80
2019-01-13T09:18:03.419Z,5.90
2019-01-13T09:20:32.058Z,6.00
2019-01-13T09:23:00.875Z,5.90
2019-01-13T09:25:29.719Z,5.90
2019-01-13T09:27:58.475Z,5.90
2019-01-13T09:30:28.790Z,5.90
2019-01-13T09:32:57.252Z,5.90
2019-01-13T09:35:26.033Z,5.90
2019-01-13T09:37:56.246Z,5.90
2019-01-13T09:40:26.724Z,6.00
2019-01-13T09:42:55.681Z,5.90
2019-01-13T09:45:24.817Z,5.90
2019-01-13T09:47:54.392Z,5.90
2019-01-13T09:50:24.598Z,5.90
2019-01-13T09:52:53.315Z,5.90
2019-01-13T09:55:23.681Z,6.00
2019-01-13T09:57:52.330Z,5.90
2019-01-13T10:00:24.069Z,5.90
2019-01-13T10:02:52.569Z,5.90
2019-01-13T10:05:21.129Z,5.90
2019-01-13T10:07:49.689Z,5.90
2019-01-13T10:10:18.381Z,5.90
2019-01-13T10:12:46.945Z,5.90
2019-01-13T10:15:18.802Z,5.90
2019-01-13T10:17:48.401Z,5.90
2019-01-13T10:20:17.020Z,5.90
2019-01-13T10:22:45.717Z,5.90
2019-01-13T10:25:14.639Z,5.80
2019-01-13T10:27:43.377Z,5.90
2019-01-13T10:30:18.830Z,5.90
2019-01-13T10:32:54.516Z,5.90
2019-01-13T10:35:23.332Z,5.90
2019-01-13T10:37:53.662Z,5.90
2019-01-13T10:40:26.838Z,5.90
2019-01-13T10:42:56.076Z,5.80
2019-01-13T10:45:24.704Z,5.80
2019-01-13T10:47:53.266Z,5.80
2019-01-13T10:50:27.025Z,5.80
2019-01-13T10:52:57.548Z,5.80
2019-01-13T10:55:26.365Z,5.80
2019-01-13T10:57:54.781Z,5.70
2019-01-13T11:00:28.708Z,5.70
2019-01-13T11:03:02.055Z,5.70
2019-01-13T11:05:27.757Z,5.60
2019-01-13T11:07:59.749Z,5.60
2019-01-13T11:10:29.816Z,5.60
2019-01-13T11:13:00.346Z,5.60
2019-01-13T11:15:31.833Z,5.50
2019-01-13T11:18:00.577Z,5.50
2019-01-13T11:20:32.170Z,5.50
2019-01-13T11:23:03.783Z,5.40
2019-01-13T11:25:32.353Z,5.50
2019-01-13T11:28:00.906Z,5.40
2019-01-13T11:30:29.564Z,5.40
2019-01-13T11:32:58.254Z,5.40
2019-01-13T11:35:26.821Z,5.30
2019-01-13T11:37:55.599Z,5.30
2019-01-13T11:40:26.399Z,5.30
2019-01-13T11:43:00.076Z,5.30
2019-01-13T11:45:28.582Z,5.20
2019-01-13T11:47:57.092Z,5.20
2019-01-13T11:50:26.269Z,5.20
2019-01-13T11:52:57.774Z,5.20
2019-01-13T11:55:26.295Z,5.20
2019-01-13T11:57:56.995Z,5.20
2019-01-13T12:00:34.483Z,5.20
2019-01-13T12:03:06.823Z,5.20
2019-01-13T12:05:33.264Z,5.20
2019-01-13T12:08:01.741Z,5.10
2019-01-13T12:10:30.499Z,5.10
2019-01-13T12:12:59.233Z,5.20
2019-01-13T12:15:27.669Z,5.20
2019-01-13T12:17:59.370Z,5.10
2019-01-13T12:20:27.901Z,5.10
2019-01-13T12:22:56.373Z,5.00
2019-01-13T12:25:27.005Z,4.90
2019-01-13T12:27:55.583Z,4.80
2019-01-13T12:30:28.998Z,4.70
2019-01-13T12:32:57.722Z,4.70
2019-01-13T12:35:26.540Z,4.60
2019-01-13T12:37:55.372Z,4.60
2019-01-13T12:40:29.413Z,4.50
2019-01-13T12:42:58.253Z,4.40
2019-01-13T12:45:29.193Z,4.30
2019-01-13T12:47:57.757Z,4.30
2019-01-13T12:50:28.329Z,4.30
2019-01-13T12:52:56.964Z,4.30
2019-01-13T12:55:25.529Z,4.30
2019-01-13T12:57:54.390Z,4.20
2019-01-13T13:00:24.293Z,4.20
2019-01-13T13:02:52.872Z,4.10
2019-01-13T13:05:23.834Z,4.20
2019-01-13T13:07:52.712Z,4.20
2019-01-13T13:10:35.472Z,4.20
2019-01-13T13:13:07.073Z,4.20
2019-01-13T13:15:35.846Z,4.20
2019-01-13T13:18:04.723Z,4.20
2019-01-13T13:20:33.337Z,4.20
2019-01-13T13:23:06.180Z,4.20
2019-01-13T13:25:36.523Z,4.20
2019-01-13T13:28:05.653Z,4.20
2019-01-13T13:30:34.073Z,4.20
2019-01-13T13:33:02.585Z,4.30
2019-01-13T13:35:31.069Z,4.30
2019-01-13T13:38:00.362Z,4.30
2019-01-13T13:40:30.421Z,4.30
2019-01-13T13:43:00.494Z,4.40
2019-01-13T13:45:28.905Z,4.40
2019-01-13T13:48:08.702Z,4.50
2019-01-13T13:50:37.117Z,4.50
2019-01-13T13:53:06.037Z,4.50
2019-01-13T13:55:34.454Z,4.60
2019-01-13T13:58:03.391Z,4.60
2019-01-13T14:00:33.530Z,4.60
2019-01-13T14:03:02.226Z,4.70
2019-01-13T14:05:30.772Z,4.80
2019-01-13T14:07:59.536Z,4.80
2019-01-13T14:10:33.553Z,4.80
2019-01-13T14:13:02.057Z,4.80
2019-01-13T14:15:30.482Z,4.80
2019-01-13T14:17:58.992Z,4.80
2019-01-13T14:20:27.578Z,4.80
2019-01-13T14:22:56.269Z,4.80
2019-01-13T14:25:24.693Z,4.80
2019-01-13T14:27:53.128Z,4.90
2019-01-13T14:30:26.390Z,4.90
2019-01-13T14:32:55.053Z,4.90
2019-01-13T14:35:23.893Z,4.90
2019-01-13T14:37:52.653Z,5.00
2019-01-13T14:40:23.294Z,5.10
2019-01-13T14:42:52.050Z,5.20
2019-01-13T14:45:22.789Z,5.30
2019-01-13T14:47:51.527Z,5.50
2019-01-13T14:50:22.159Z,5.90
2019-01-13T14:52:51.470Z,6.10
2019-01-13T14:55:19.995Z,6.30
2019-01-13T14:57:48.806Z,6.50
2019-01-13T15:00:29.475Z,6.50
2019-01-13T15:02:58.466Z,6.50
2019-01-13T15:05:28.445Z,6.60
2019-01-13T15:07:57.187Z,6.60
2019-01-13T15:10:25.887Z,6.60
2019-01-13T15:12:54.833Z,6.60
2019-01-13T15:15:23.861Z,6.60
2019-01-13T15:17:52.366Z,6.70
2019-01-13T15:20:22.241Z,6.70
2019-01-13T15:22:51.678Z,6.80
2019-01-13T15:25:24.678Z,6.80
2019-01-13T15:27:53.169Z,6.70
2019-01-13T15:30:27.005Z,6.70
2019-01-13T15:32:55.735Z,6.70
2019-01-13T15:35:24.233Z,6.80
2019-01-13T15:37:52.789Z,6.80
2019-01-13T15:40:21.913Z,6.80
2019-01-13T15:42:50.440Z,6.80
2019-01-13T15:45:19.383Z,6.80
2019-01-13T15:47:47.797Z,6.80
2019-01-13T15:50:18.928Z,6.90
2019-01-13T15:52:47.828Z,6.90
2019-01-13T15:55:16.498Z,7.00
2019-01-13T15:57:44.980Z,8.40
2019-01-13T16:00:16.249Z,6.90
2019-01-13T16:02:44.987Z,7.00
2019-01-13T16:05:13.763Z,7.10
2019-01-13T16:07:42.430Z,7.10
2019-01-13T16:10:13.955Z,7.20
2019-01-13T16:12:42.437Z,7.20
2019-01-13T16:15:12.333Z,7.20
2019-01-13T16:17:45.333Z,7.20
2019-01-13T16:20:22.039Z,7.20
2019-01-13T16:22:50.529Z,7.20
2019-01-13T16:25:19.957Z,7.20
2019-01-13T16:27:48.377Z,7.30
2019-01-13T16:30:28.204Z,7.40
2019-01-13T16:32:56.699Z,7.40
2019-01-13T16:35:25.288Z,7.40
2019-01-13T16:37:54.089Z,7.40
2019-01-13T16:40:23.773Z,7.40
2019-01-13T16:42:52.181Z,7.50
2019-01-13T16:45:20.930Z,7.50
2019-01-13T16:47:49.687Z,7.50
2019-01-13T16:50:23.088Z,7.50
2019-01-13T16:52:53.207Z,7.60
2019-01-13T16:55:22.169Z,7.50
2019-01-13T16:57:51.209Z,7.50
2019-01-13T17:00:25.155Z,7.50
2019-01-13T17:02:53.713Z,7.50
2019-01-13T17:05:24.595Z,7.40
2019-01-13T17:07:53.641Z,7.40
2019-01-13T17:10:23.661Z,7.50
2019-01-13T17:12:52.348Z,7.40
2019-01-13T17:15:26.527Z,7.40
2019-01-13T17:17:55.226Z,7.40
2019-01-13T17:20:23.926Z,7.40
2019-01-13T17:22:52.505Z,7.30
2019-01-13T17:25:23.997Z,7.40
2019-01-13T17:27:54.158Z,7.40
2019-01-13T17:30:24.525Z,7.40
2019-01-13T17:32:53.065Z,7.30
2019-01-13T17:35:21.801Z,7.40
2019-01-13T17:37:51.084Z,7.30
2019-01-13T17:40:21.697Z,7.30
2019-01-13T17:42:50.243Z,7.30
2019-01-13T17:45:20.786Z,7.30
2019-01-13T17:47:49.568Z,7.30
2019-01-13T17:50:20.475Z,7.40
2019-01-13T17:52:48.906Z,7.40
2019-01-13T17:55:22.600Z,7.30
2019-01-13T17:57:51.106Z,7.30
2019-01-13T18:00:31.282Z,7.40
2019-01-13T18:03:02.433Z,7.40
2019-01-13T18:05:31.190Z,7.40
2019-01-13T18:07:59.722Z,7.40
2019-01-13T18:10:28.493Z,7.40
2019-01-13T18:12:56.989Z,7.30
2019-01-13T18:15:25.680Z,7.40
2019-01-13T18:17:54.182Z,7.40
2019-01-13T18:20:23.389Z,7.40
2019-01-13T18:22:51.805Z,7.40
2019-01-13T18:25:20.220Z,7.40
2019-01-13T18:27:48.900Z,7.40
2019-01-13T18:30:19.972Z,7.40
2019-01-13T18:32:48.719Z,7.40
2019-01-13T18:35:18.945Z,7.40
2019-01-13T18:37:47.621Z,7.50
2019-01-13T18:40:18.083Z,7.50
2019-01-13T18:42:46.956Z,7.40
2019-01-13T18:45:16.206Z,7.50
2019-01-13T18:47:45.165Z,7.50
2019-01-13T18:50:16.385Z,7.50
2019-01-13T18:52:47.454Z,7.50
2019-01-13T18:55:16.011Z,7.60
2019-01-13T18:57:44.449Z,7.60
2019-01-13T19:00:16.225Z,7.60
2019-01-13T19:02:44.637Z,7.60
2019-01-13T19:05:15.157Z,7.60
2019-01-13T19:07:43.581Z,7.60
2019-01-13T19:10:21.909Z,7.60
2019-01-13T19:12:56.221Z,7.60
2019-01-13T19:15:24.662Z,7.60
2019-01-13T19:17:55.015Z,7.60
2019-01-13T19:20:23.761Z,7.60
2019-01-13T19:22:52.318Z,7.60
2019-01-13T19:25:20.825Z,7.70
2019-01-13T19:27:49.530Z,7.60
2019-01-13T19:30:18.141Z,7.70
2019-01-13T19:32:46.561Z,7.70
2019-01-13T19:35:16.385Z,7.70
2019-01-13T19:37:45.221Z,7.70
2019-01-13T19:40:15.904Z,7.70
2019-01-13T19:42:44.549Z,7.70
2019-01-13T19:45:15.997Z,7.80
2019-01-13T19:47:44.407Z,7.90
2019-01-13T19:50:18.117Z,7.90
2019-01-13T19:52:46.712Z,7.90
2019-01-13T19:55:16.571Z,8.00
2019-01-13T19:57:45.165Z,7.90
2019-01-13T20:00:20.933Z,7.80
2019-01-13T20:02:49.557Z,7.90
2019-01-13T20:05:18.478Z,7.90
2019-01-13T20:07:46.909Z,7.90
2019-01-13T20:10:15.894Z,7.80
2019-01-13T20:12:44.401Z,7.70
2019-01-13T20:15:16.186Z,7.70
2019-01-13T20:17:44.620Z,7.70
2019-01-13T20:20:15.568Z,7.70
2019-01-13T20:22:44.135Z,7.70
2019-01-13T20:25:15.354Z,7.70
2019-01-13T20:27:46.741Z,7.60
2019-01-13T20:30:20.524Z,7.60
2019-01-13T20:32:49.040Z,7.60
2019-01-13T20:35:19.267Z,7.50
2019-01-13T20:37:48.005Z,7.50
2019-01-13T20:40:17.729Z,7.50
2019-01-13T20:42:48.016Z,7.40
2019-01-13T20:45:19.484Z,7.40
2019-01-13T20:47:47.922Z,7.50
2019-01-13T20:50:16.577Z,7.50
2019-01-13T20:52:45.437Z,7.50
2019-01-13T20:55:15.914Z,7.40
2019-01-13T20:57:44.622Z,7.40
2019-01-13T21:00:16.213Z,7.30
2019-01-13T21:02:44.937Z,7.40
2019-01-13T21:05:17.641Z,7.50
2019-01-13T21:07:46.074Z,7.50
2019-01-13T21:10:16.625Z,7.50
2019-01-13T21:12:45.233Z,7.50
2019-01-13T21:15:17.022Z,7.60
2019-01-13T21:17:45.714Z,7.60
2019-01-13T21:20:14.561Z,7.50
2019-01-13T21:22:43.068Z,7.60
2019-01-13T21:25:14.396Z,7.50
2019-01-13T21:27:43.170Z,7.50
2019-01-13T21:30:17.465Z,7.60
2019-01-13T21:32:46.145Z,7.50
2019-01-13T21:35:14.725Z,7.50
2019-01-13T21:37:43.202Z,7.50
2019-01-13T21:40:14.086Z,7.50
2019-01-13T21:42:42.777Z,7.50
2019-01-13T21:45:14.324Z,7.40
2019-01-13T21:47:42.897Z,7.40
2019-01-13T21:50:14.253Z,7.40
2019-01-13T21:52:42.865Z,7.30
2019-01-13T21:55:13.345Z,7.20
2019-01-13T21:57:41.789Z,7.00
2019-01-13T22:00:19.576Z,6.80
2019-01-13T22:02:48.249Z,6.70
2019-01-13T22:05:16.917Z,6.70
2019-01-13T22:07:45.401Z,6.60
2019-01-13T22:10:16.347Z,6.60
2019-01-13T22:12:45.226Z,6.60
2019-01-13T22:15:16.166Z,6.50
2019-01-13T22:17:44.594Z,6.50
2019-01-13T22:20:19.037Z,6.40
2019-01-13T22:22:47.604Z,6.30
2019-01-13T22:25:16.160Z,6.30
2019-01-13T22:27:44.658Z,6.20
2019-01-13T22:30:16.260Z,6.30
2019-01-13T22:32:45.022Z,6.40
2019-01-13T22:35:13.761Z,6.20
2019-01-13T22:37:43.131Z,6.20
2019-01-13T22:40:13.970Z,6.10
2019-01-13T22:42:42.772Z,6.20
2019-01-13T22:45:13.854Z,6.20
2019-01-13T22:47:42.262Z,6.20
2019-01-13T22:50:13.013Z,6.10
2019-01-13T22:52:41.921Z,6.10
2019-01-13T22:55:11.092Z,6.10
2019-01-13T22:57:39.597Z,6.20
2019-01-13T23:00:49.986Z,6.20
2019-01-13T23:03:20.522Z,6.20
2019-01-13T23:05:55.412Z,6.20
2019-01-13T23:08:19.081Z,6.20
2019-01-13T23:10:47.568Z,6.20
2019-01-13T23:13:16.346Z,6.10
2019-01-13T23:15:44.932Z,6.20
2019-01-13T23:18:13.498Z,6.20
2019-01-13T23:20:42.881Z,6.30
2019-01-13T23:23:11.369Z,6.30
2019-01-13T23:25:42.781Z,6.20
2019-01-13T23:28:11.193Z,6.10
2019-01-13T23:30:39.622Z,6.20
2019-01-13T23:33:08.355Z,6.20
2019-01-13T23:35:36.905Z,6.20
2019-01-13T23:38:05.912Z,6.30
2019-01-13T23:40:34.483Z,6.30
2019-01-13T23:43:03.233Z,6.30
2019-01-13T23:45:31.839Z,6.30
2019-01-13T23:48:00.625Z,6.30
2019-01-13T23:50:29.066Z,6.30
2019-01-13T23:52:57.560Z,6.30
2019-01-13T23:55:26.056Z,6.30
2019-01-13T23:57:54.754Z,6.30
